Flight Track Log - Related Links

Times and Time Zones

All times are in EDT time to prevent confusion due to time zone crossing. See the UAL258 flight status page for this flight to view local times or setup timezone preferences in your user account.

Time Position Orientation Groundspeed Altitude Reporting Facility
EDT Latitude Longitude Course Direction KTS MPH feet Rate Location/Type
Sun 09:42:26 PM 37.6281 -122.3917 North 144 166 1,300  Level Oakland Center
Sun 09:43:07 PM 37.6500 -122.3667 42° Northeast 176 203 3,000 1,960 Climbing Northern Cal TRACON
Sun 09:44:00 PM 37.8934 -122.2000 North  Level FlightAware Approximate
Sun 09:44:07 PM 37.7000 -122.3333 28° Northeast 211 243 4,600  Level Northern Cal TRACON
Sun 09:45:00 PM 38.0045 -122.1962 North  Level FlightAware Approximate
Sun 09:46:00 PM 38.1154 -122.1851 North  Level FlightAware Approximate
Sun 09:46:30 PM 37.8619 -122.3256 North 278 320 11,000  Level Oakland Center
Sun 09:47:00 PM 38.2264 -122.1756 North  Level FlightAware Approximate
Sun 09:47:31 PM 37.9544 -122.3206 North 337 388 12,300  Level Oakland Center
Sun 09:48:32 PM 38.0572 -122.3186 North 373 429 14,800 2,557 Climbing Oakland Center
Sun 09:49:33 PM 38.1847 -122.3136 North 385 443 17,500 2,459 Climbing Oakland Center
Sun 09:50:34 PM 38.2947 -122.3100 North 395 455 19,800 2,066 Climbing Oakland Center
Sun 09:51:35 PM 38.4056 -122.3044 North 399 459 21,700 1,770 Climbing Oakland Center
Sun 09:52:36 PM 38.5186 -122.3003 North 406 467 23,400 1,623 Climbing Oakland Center
Sun 09:53:37 PM 38.6339 -122.2964 North 413 475 25,000 1,475 Climbing Oakland Center
Sun 09:54:38 PM 38.7542 -122.2919 North 420 483 26,400 1,328 Climbing Oakland Center
Sun 09:55:39 PM 38.8725 -122.2939 359° North 423 487 27,700 1,377 Climbing Oakland Center
Sun 09:56:40 PM 38.9922 -122.2933 360° North 428 493 29,200 1,525 Climbing Oakland Center
Sun 09:57:41 PM 39.1081 -122.2931 360° North 417 480 30,800 1,475 Climbing Oakland Center
Sun 09:58:42 PM 39.2228 -122.2919 360° North 412 474 32,200 1,230 Climbing Oakland Center
Sun 09:59:43 PM 39.3378 -122.2925 360° North 413 475 33,300 1,033 Climbing Oakland Center
Sun 10:00:44 PM 39.4519 -122.2931 360° North 410 472 34,300 942 Climbing Oakland Center
Sun 10:01:44 PM 39.5669 -122.2928 360° North 410 472 35,200 744 Climbing Oakland Center
Sun 10:02:45 PM 39.6836 -122.2922 360° North 417 480 35,800 787 Climbing Oakland Center
Sun 10:03:46 PM 39.8014 -122.2917 360° North 423 487 36,800 738 Climbing Oakland Center
Sun 10:04:47 PM 39.9172 -122.2917 360° North 419 482 37,300 443 Climbing Oakland Center
Sun 10:05:48 PM 40.0350 -122.2922 360° North 421 484 37,700 344 Climbing Oakland Center
Sun 10:06:49 PM 40.1578 -122.2906 North 431 496 38,000 148 Climbing Oakland Center
Sun 10:07:50 PM 40.2903 -122.2908 360° North 438 504 38,000  Level Oakland Center
Sun 10:08:51 PM 40.4094 -122.2908 360° North 433 498 38,000  Level Oakland Center
Sun 10:09:52 PM 40.5294 -122.2906 360° North 432 497 38,000  Level Oakland Center
Sun 10:10:52 PM 40.6478 -122.2894 360° North 429 494 38,000  Level Oakland Center
Sun 10:11:53 PM 40.7664 -122.2883 360° North 426 490 38,000  Level Oakland Center
Sun 10:12:54 PM 40.9072 -122.2881 360° North 424 488 38,000  Level Oakland Center
Sun 10:13:55 PM 41.0258 -122.2883 360° North 425 489 38,000  Level Oakland Center
Sun 10:14:56 PM 41.1450 -122.2908 359° North 428 493 38,000  Level Oakland Center
Sun 10:15:57 PM 41.2650 -122.2900 360° North 431 496 38,000  Level Oakland Center
Sun 10:16:58 PM 41.3747 -122.2881 North 427 491 38,000  Level Oakland Center
Sun 10:17:38 PM 41.4475 -122.2889 360° North 428 493 38,000  Level Seattle Center
Sun 10:18:38 PM 41.5678 -122.2881 360° North 430 495 38,000  Level Seattle Center
Sun 10:19:39 PM 41.6875 -122.2889 360° North 429 494 38,000  Level Seattle Center
Sun 10:20:40 PM 41.8081 -122.2883 360° North 430 495 38,000  Level Seattle Center
Sun 10:21:40 PM 41.9281 -122.2883 360° North 428 493 38,000  Level Seattle Center
Sun 10:22:41 PM 42.0478 -122.2889 360° North 426 490 38,000  Level Seattle Center
Sun 10:23:42 PM 42.1683 -122.2864 North 426 490 38,000  Level Seattle Center
Sun 10:24:42 PM 42.2869 -122.2853 360° North 422 486 38,000  Level Seattle Center
Sun 10:25:43 PM 42.4067 -122.2869 359° North 426 490 38,000 -49 Level Seattle Center
Sun 10:26:44 PM 42.5242 -122.2872 360° North 422 486 37,900  Descending Seattle Center
Sun 10:27:44 PM 42.6431 -122.2861 360° North 425 489 38,000 50 Climbing Seattle Center
Sun 10:28:45 PM 42.7808 -122.2847 360° North 427 491 38,000  Level Seattle Center
Sun 10:29:46 PM 42.9000 -122.2839 360° North 430 495 38,000  Level Seattle Center
Sun 10:30:46 PM 43.0189 -122.2839 360° North 429 494 38,000  Level Seattle Center
Sun 10:31:47 PM 43.1392 -122.2836 360° North 432 497 38,000  Level Seattle Center
Sun 10:32:48 PM 43.2586 -122.2836 360° North 430 495 38,000  Level Seattle Center
Sun 10:33:48 PM 43.3775 -122.2833 360° North 429 494 38,000  Level Seattle Center
Sun 10:34:49 PM 43.4972 -122.2839 360° North 431 496 38,000  Level Seattle Center
Sun 10:35:50 PM 43.6164 -122.2833 360° North 430 495 38,000  Level Seattle Center
Sun 10:36:50 PM 43.7356 -122.2842 360° North 429 494 38,000  Level Seattle Center
Sun 10:37:51 PM 43.8544 -122.2833 360° North 428 493 38,000  Level Seattle Center
Sun 10:38:52 PM 43.9739 -122.2842 360° North 430 495 38,000  Level Seattle Center
Sun 10:39:52 PM 44.0931 -122.2839 360° North 430 495 38,000  Level Seattle Center
Sun 10:40:53 PM 44.2350 -122.2833 360° North 427 491 38,000  Level Seattle Center
Sun 10:41:54 PM 44.3544 -122.2828 360° North 430 495 38,000  Level Seattle Center
Sun 10:42:54 PM 44.4750 -122.2822 360° North 432 497 38,000  Level Seattle Center
Sun 10:43:55 PM 44.5956 -122.2842 359° North 436 502 38,000  Level Seattle Center
Sun 10:44:56 PM 44.7164 -122.2833 360° North 435 501 38,000  Level Seattle Center
Sun 10:45:56 PM 44.8356 -122.2836 360° North 432 497 38,000 -50 Level Seattle Center
Sun 10:46:57 PM 44.9472 -122.2831 360° North 427 491 37,900 -49 Descending Seattle Center
Sun 10:47:58 PM 45.0656 -122.2825 360° North 427 491 37,900  Level Seattle Center
Sun 10:48:58 PM 45.1856 -122.2822 360° North 433 498 37,900  Level Seattle Center
Sun 10:49:59 PM 45.3058 -122.2828 360° North 434 499 37,900 49 Level Seattle Center
Sun 10:51:00 PM 45.4253 -122.2817 360° North 434 499 38,000  Climbing Seattle Center
Sun 10:52:00 PM 45.5467 -122.2819 360° North 437 503 37,900 -50 Descending Seattle Center
Sun 10:53:01 PM 45.6903 -122.2806 360° North 435 501 37,900  Level Seattle Center
Sun 10:54:02 PM 45.8111 -122.2817 360° North 437 503 37,900 50 Level Seattle Center
Sun 10:55:02 PM 45.9328 -122.2814 360° North 437 503 38,000  Climbing Seattle Center
Sun 10:56:03 PM 46.0536 -122.2797 North 439 505 37,900 -50 Descending Seattle Center
Sun 10:57:03 PM 46.1731 -122.2800 360° North 433 498 37,900 50 Level Seattle Center
Sun 10:58:04 PM 46.2886 -122.2800 360° North 436 502 38,000 49 Climbing Seattle Center
Sun 10:59:05 PM 46.4094 -122.2789 360° North 439 505 38,000  Level Seattle Center
Sun 11:00:05 PM 46.5306 -122.2792 360° North 440 506 38,000  Level Seattle Center
Sun 11:01:06 PM 46.6531 -122.2781 360° North 443 510 38,000  Level Seattle Center
Sun 11:02:07 PM 46.7753 -122.2772 360° North 445 512 38,000  Level Seattle Center
Sun 11:03:07 PM 46.9214 -122.2786 360° North 442 509 38,000  Level Seattle Center
Sun 11:04:08 PM 47.0431 -122.2800 360° North 443 510 38,000  Level Seattle Center
Sun 11:05:09 PM 47.1650 -122.2808 360° North 442 509 38,000  Level Seattle Center
Sun 11:06:09 PM 47.2856 -122.2775 North 440 506 38,000 -149 Level Seattle Center
Sun 11:07:10 PM 47.4056 -122.2786 360° North 437 503 37,700 -694 Descending Seattle Center
Sun 11:08:10 PM 47.5256 -122.2783 360° North 440 506 36,600 -1,835 Descending Seattle Center
Sun 11:09:11 PM 47.6439 -122.2781 360° North 440 506 34,000 -2,852 Descending Seattle Center
Sun 11:10:12 PM 47.7867 -122.2775 360° North 445 512 30,800 -2,678 Descending Seattle Center
Sun 11:11:12 PM 47.9047 -122.2786 360° North 437 503 28,600 -2,231 Descending Seattle Center
Sun 11:12:13 PM 48.0175 -122.3053 351° North 420 483 26,300 -2,262 Descending Seattle Center
Sun 11:13:14 PM 48.1267 -122.3378 349° North 409 471 24,000 -2,281 Descending Seattle Center
Sun 11:14:14 PM 48.2364 -122.3689 349° North 407 468 21,700 -2,281 Descending Seattle Center
Sun 11:15:15 PM 48.3428 -122.4008 349° North 400 460 19,400 -2,231 Descending Seattle Center
Sun 11:16:15 PM 48.4469 -122.4308 349° North 388 447 17,200 -2,083 Descending Seattle Center
Sun 11:17:16 PM 48.5500 -122.4617 349° North 385 443 15,200 -1,967 Descending Seattle Center
Sun 11:18:17 PM 48.6483 -122.4903 349° North 370 426 13,200 -2,182 Descending Seattle Center
Sun 11:18:33 PM 48.6833 -122.5167 334° Northwest 360 414 12,400 -947 Descending Vancouver Center
Sun 11:19:33 PM 48.7500 -122.5833 327° Northwest 350 403 12,000 -400 Descending Vancouver Center
Sun 11:20:33 PM 48.8000 -122.7167 300° West 350 403 11,600 -650 Descending Vancouver Center
Sun 11:21:33 PM 48.8667 -122.8167 315° West 350 403 10,700 -750 Descending Vancouver Center
Sun 11:22:33 PM 48.9333 -122.9167 315° West 340 391 10,100 -400 Descending Vancouver Center
Sun 11:23:33 PM 49.0000 -123.0333 311° West 340 391 9,900 -400 Descending Vancouver Center
Sun 11:24:33 PM 49.0500 -123.1167 312° West 310 357 9,300 -1,100 Descending Vancouver Center
Sun 11:25:33 PM 49.0667 -123.2333 282° West 280 322 7,700 -1,550 Descending Vancouver Center
Sun 11:26:33 PM 49.0833 -123.3333 284° West 270 311 6,200 -1,550 Descending Vancouver Center
Sun 11:27:33 PM 49.1167 -123.4667 291° West 270 311 4,600 -1,350 Descending Vancouver Center
Sun 11:28:33 PM 49.1667 -123.5167 327° Northwest 270 311 3,500 -800 Descending Vancouver Center
Sun 11:29:33 PM 49.2000 -123.4667 44° Northeast 220 253 3,000 -500 Descending Vancouver Center

Login

Don't have an account? Register now (free) for customized features, flight alerts, and more!